Time;durP1;ratioP1;P1;durP2;ratioP2;P2;SDS_P1;SDS_P2;PMS_P1;PMS_P2;Temp;Humidity;BMP_temperature;BMP_pressure;BME280_temperature;BME280_humidity;BME280_pressure;Samples;Min_cycle;Max_cycle;Signal;HPM_P1;HPM_P2
2022/04/05 00:02:19;;;;;;;5.57;1.45;;;6.70;99.90;;;;;;5058366;28;20602;-57
2022/04/05 00:04:44;;;;;;;3.50;1.52;;;6.80;99.90;;;;;;5064389;28;20028;-58
2022/04/05 00:07:10;;;;;;;1.98;1.65;;;6.80;99.90;;;;;;5064651;28;20107;-53
2022/04/05 00:09:36;;;;;;;2.33;2.00;;;6.90;99.90;;;;;;5058850;28;20021;-58
2022/04/05 00:12:01;;;;;;;3.92;1.88;;;6.90;99.90;;;;;;5056015;28;20029;-59
2022/04/05 00:14:27;;;;;;;3.17;2.47;;;6.90;99.90;;;;;;5064145;28;20016;-56
2022/04/05 00:16:52;;;;;;;3.70;2.92;;;7.00;99.90;;;;;;5061217;28;20029;-59
2022/04/05 00:19:22;;;;;;;4.07;2.92;;;7.00;99.90;;;;;;5060335;28;20025;-59
2022/04/05 00:21:48;;;;;;;3.95;3.10;;;7.00;99.90;;;;;;5050418;28;20484;-58
2022/04/05 00:24:15;;;;;;;4.75;3.47;;;7.00;99.90;;;;;;5058306;28;20096;-57
2022/04/05 00:26:40;;;;;;;6.18;3.92;;;7.10;99.90;;;;;;5035636;28;20076;-57
2022/04/05 00:29:07;;;;;;;4.45;3.70;;;7.10;99.90;;;;;;5054844;28;20510;-56
2022/04/05 00:31:33;;;;;;;5.05;3.58;;;7.10;99.90;;;;;;5038620;28;20828;-55
2022/04/05 00:33:58;;;;;;;5.72;4.88;;;7.20;99.90;;;;;;5058300;28;20085;-56
2022/04/05 00:36:24;;;;;;;5.85;4.82;;;7.20;99.90;;;;;;5060372;28;20029;-54
2022/04/05 00:38:49;;;;;;;5.50;4.07;;;7.30;99.90;;;;;;5053334;28;20082;-57
2022/04/05 00:41:15;;;;;;;6.95;4.20;;;7.30;99.90;;;;;;5067580;28;20021;-57
2022/04/05 00:43:41;;;;;;;6.30;4.30;;;7.30;99.90;;;;;;5069550;28;20104;-56
2022/04/05 00:46:07;;;;;;;7.90;4.20;;;7.40;99.90;;;;;;5064966;28;20115;-58
2022/04/05 00:48:45;;;;;;;8.27;4.32;;;7.40;99.90;;;;;;5056362;28;20032;-57
2022/04/05 00:51:11;;;;;;;6.30;4.10;;;7.40;99.90;;;;;;5064454;28;20028;-57
2022/04/05 00:53:38;;;;;;;6.60;5.07;;;7.40;99.90;;;;;;5056400;28;20032;-58
2022/04/05 00:56:06;;;;;;;6.15;4.93;;;7.40;99.90;;;;;;5055029;28;20388;-57
2022/04/05 00:58:34;;;;;;;6.10;4.80;;;7.50;99.90;;;;;;5070178;28;20098;-57
2022/04/05 01:01:00;;;;;;;6.07;5.38;;;7.50;99.90;;;;;;5066146;28;20033;-58
2022/04/05 01:03:26;;;;;;;6.65;5.60;;;7.40;99.90;;;;;;5059988;28;20550;-58
2022/04/05 01:05:52;;;;;;;7.95;5.50;;;7.50;99.90;;;;;;5056336;28;20033;-58
2022/04/05 01:08:20;;;;;;;9.00;5.88;;;7.50;99.90;;;;;;5049823;28;20654;-60
2022/04/05 01:10:47;;;;;;;8.10;6.32;;;7.40;99.90;;;;;;5053914;28;20036;-58
2022/04/05 01:13:12;;;;;;;10.68;5.90;;;7.50;99.90;;;;;;5057431;28;20029;-59
2022/04/05 01:15:39;;;;;;;7.78;6.15;;;7.50;99.90;;;;;;5060393;28;20040;-51
2022/04/05 01:18:04;;;;;;;7.72;6.43;;;7.50;99.90;;;;;;5053979;28;20391;-59
2022/04/05 01:20:32;;;;;;;8.10;6.57;;;7.50;99.90;;;;;;5065187;28;20028;-58
2022/04/05 01:22:58;;;;;;;7.63;5.97;;;7.50;99.90;;;;;;5071480;28;20446;-59
2022/04/05 01:25:24;;;;;;;8.32;6.20;;;7.60;99.90;;;;;;5059122;28;20039;-59
2022/04/05 01:27:51;;;;;;;8.40;6.40;;;7.60;99.90;;;;;;5041519;28;20159;-59
2022/04/05 01:30:17;;;;;;;8.52;6.47;;;7.60;99.90;;;;;;5056585;28;20028;-59
2022/04/05 01:32:43;;;;;;;9.52;7.78;;;7.60;99.90;;;;;;5055684;28;20102;-59
2022/04/05 01:35:10;;;;;;;10.88;8.48;;;7.60;99.90;;;;;;5064112;28;20078;-58
2022/04/05 01:37:35;;;;;;;11.13;8.02;;;7.60;99.90;;;;;;5059462;28;20033;-57
2022/04/05 01:40:01;;;;;;;10.00;8.40;;;7.60;99.90;;;;;;5057990;28;20090;-54
2022/04/05 01:42:27;;;;;;;10.00;8.25;;;7.60;99.90;;;;;;5061076;28;20040;-55
2022/04/05 01:44:52;;;;;;;10.98;7.95;;;7.60;99.90;;;;;;5051966;28;20021;-58
2022/04/05 01:47:19;;;;;;;11.30;7.55;;;7.70;99.90;;;;;;5062112;28;20031;-59
2022/04/05 01:49:48;;;;;;;12.27;7.55;;;7.60;99.90;;;;;;5068751;28;20025;-59
2022/04/05 01:52:14;;;;;;;10.50;8.57;;;7.60;99.90;;;;;;5052180;28;20152;-57
2022/04/05 01:54:40;;;;;;;14.13;10.15;;;7.70;99.90;;;;;;5055487;28;20049;-58
2022/04/05 01:57:06;;;;;;;12.98;10.50;;;7.70;99.90;;;;;;5053360;28;20514;-60
2022/04/05 01:59:33;;;;;;;10.27;7.35;;;7.70;99.90;;;;;;5054179;28;20024;-57
2022/04/05 02:01:58;;;;;;;12.05;10.00;;;7.70;99.90;;;;;;5063389;28;20640;-59
2022/04/05 02:04:24;;;;;;;14.93;10.63;;;7.70;99.90;;;;;;5062800;28;20032;-55
2022/04/05 02:06:50;;;;;;;13.73;11.43;;;7.70;99.90;;;;;;5068057;28;20020;-59
2022/04/05 02:09:16;;;;;;;16.20;13.27;;;7.70;99.90;;;;;;5055111;28;20094;-60
2022/04/05 02:11:47;;;;;;;15.07;12.13;;;7.70;99.90;;;;;;5061382;28;20021;-58
2022/04/05 02:14:14;;;;;;;14.57;11.68;;;7.70;99.90;;;;;;5069846;28;20468;-57
2022/04/05 02:16:40;;;;;;;14.77;12.18;;;7.70;99.90;;;;;;5064016;28;20155;-59
2022/04/05 02:19:06;;;;;;;15.82;12.18;;;7.70;99.90;;;;;;5058427;28;20115;-60
2022/04/05 02:21:32;;;;;;;15.55;11.70;;;7.70;99.90;;;;;;5051607;28;20025;-60
2022/04/05 02:23:58;;;;;;;15.23;12.32;;;7.70;99.90;;;;;;5051995;28;20033;-55
2022/04/05 02:26:23;;;;;;;16.45;13.43;;;7.70;99.90;;;;;;5062040;28;20029;-54
2022/04/05 02:28:50;;;;;;;17.17;13.73;;;7.70;99.90;;;;;;5048760;28;20458;-59
2022/04/05 02:31:16;;;;;;;17.33;13.77;;;7.70;99.90;;;;;;5051888;28;20032;-58
2022/04/05 02:33:42;;;;;;;15.05;12.15;;;7.70;99.90;;;;;;5062277;28;20017;-59
2022/04/05 02:36:08;;;;;;;20.38;11.25;;;7.70;99.90;;;;;;5067521;28;20051;-57
2022/04/05 02:38:36;;;;;;;17.45;13.02;;;7.70;99.90;;;;;;5061214;28;20021;-60
2022/04/05 02:41:04;;;;;;;17.27;13.73;;;7.70;99.90;;;;;;5055664;28;20024;-58
2022/04/05 02:43:30;;;;;;;17.30;13.63;;;7.70;99.90;;;;;;5017109;28;1025182;-60
2022/04/05 02:45:55;;;;;;;19.77;14.95;;;7.70;99.90;;;;;;5062593;28;20119;-59
2022/04/05 02:48:22;;;;;;;18.73;15.30;;;7.80;99.90;;;;;;5058314;28;20490;-59
2022/04/05 02:50:48;;;;;;;21.95;16.52;;;7.80;99.90;;;;;;5052187;28;20025;-60
2022/04/05 02:53:13;;;;;;;21.23;17.52;;;7.80;99.90;;;;;;5066340;28;20559;-56
2022/04/05 02:55:39;;;;;;;21.17;17.17;;;7.80;99.90;;;;;;5061804;28;20083;-59
2022/04/05 02:58:04;;;;;;;28.50;21.17;;;7.80;99.90;;;;;;5052114;28;20404;-59
2022/04/05 03:00:30;;;;;;;25.98;17.88;;;7.80;99.90;;;;;;5054470;28;20021;-57
2022/04/05 03:02:55;;;;;;;24.48;17.85;;;7.80;99.90;;;;;;5057861;28;20029;-59
2022/04/05 03:05:22;;;;;;;25.90;18.70;;;7.80;99.90;;;;;;5051229;28;20032;-60
2022/04/05 03:07:48;;;;;;;24.48;18.35;;;7.80;99.90;;;;;;5054932;28;20029;-56
2022/04/05 03:10:14;;;;;;;23.88;17.95;;;7.80;99.90;;;;;;5061671;28;20041;-58
2022/04/05 03:12:39;;;;;;;26.67;18.17;;;7.90;99.90;;;;;;5066430;28;20063;-59
2022/04/05 03:15:07;;;;;;;26.35;17.65;;;7.90;99.90;;;;;;5070357;28;20170;-58
2022/04/05 03:17:34;;;;;;;24.52;16.95;;;7.90;99.90;;;;;;5066998;28;20166;-59
2022/04/05 03:20:00;;;;;;;27.17;18.63;;;7.90;99.90;;;;;;5064637;28;20484;-60
2022/04/05 03:22:26;;;;;;;29.05;18.60;;;7.90;99.90;;;;;;5061101;28;20103;-50
2022/04/05 03:24:51;;;;;;;35.72;22.10;;;7.90;99.90;;;;;;5059939;28;20186;-58
2022/04/05 03:27:17;;;;;;;34.17;23.25;;;7.90;99.90;;;;;;5044173;28;20033;-59
2022/04/05 03:29:42;;;;;;;34.17;22.15;;;7.90;99.90;;;;;;5053958;28;20570;-60
2022/04/05 03:32:11;;;;;;;39.92;24.55;;;8.00;99.90;;;;;;5061700;28;20033;-58
2022/04/05 03:34:37;;;;;;;30.80;22.15;;;8.00;99.90;;;;;;5068370;28;20051;-59
2022/04/05 03:37:02;;;;;;;35.67;23.73;;;8.00;99.90;;;;;;5062369;28;20072;-59
2022/04/05 03:39:28;;;;;;;35.95;22.90;;;8.00;99.90;;;;;;5061918;28;20036;-60
2022/04/05 03:41:53;;;;;;;30.60;21.95;;;8.00;99.90;;;;;;5053479;28;20076;-60
2022/04/05 03:44:19;;;;;;;31.25;22.10;;;8.10;99.90;;;;;;5062139;28;20817;-55
2022/04/05 03:46:44;;;;;;;34.25;22.92;;;8.10;99.90;;;;;;5070700;28;20033;-57
2022/04/05 03:49:10;;;;;;;33.03;21.85;;;8.10;99.90;;;;;;5055850;28;20404;-56
2022/04/05 03:51:36;;;;;;;39.67;25.55;;;8.10;99.90;;;;;;5052309;28;20479;-55
2022/04/05 03:54:01;;;;;;;33.13;22.60;;;8.10;99.90;;;;;;5055049;28;20032;-55
2022/04/05 03:56:27;;;;;;;35.75;23.77;;;8.10;99.90;;;;;;5060814;28;20107;-52
2022/04/05 03:58:52;;;;;;;36.47;25.05;;;8.10;99.90;;;;;;5070268;28;20111;-59
2022/04/05 04:01:19;;;;;;;40.95;25.88;;;8.10;99.90;;;;;;5051988;28;20107;-59
2022/04/05 04:03:44;;;;;;;42.63;27.63;;;8.10;99.90;;;;;;5053797;28;20496;-57
2022/04/05 04:06:10;;;;;;;42.22;26.35;;;8.10;99.90;;;;;;5061333;28;20075;-57
2022/04/05 04:08:35;;;;;;;45.85;28.85;;;8.10;99.90;;;;;;5067512;28;20074;-59
2022/04/05 04:11:02;;;;;;;50.15;28.73;;;8.20;99.90;;;;;;5051518;28;20488;-58
2022/04/05 04:13:28;;;;;;;48.47;28.70;;;8.20;99.90;;;;;;5056600;28;20031;-57
2022/04/05 04:15:56;;;;;;;45.40;29.25;;;8.20;99.90;;;;;;5069505;28;20136;-57
2022/04/05 04:18:21;;;;;;;44.92;29.63;;;8.20;99.90;;;;;;5064552;28;20495;-55
2022/04/05 04:20:48;;;;;;;43.13;27.40;;;8.20;99.90;;;;;;5054825;28;20044;-55
2022/04/05 04:23:15;;;;;;;40.88;25.40;;;8.20;99.90;;;;;;5053390;28;20041;-55
2022/04/05 04:25:41;;;;;;;34.47;22.98;;;8.30;99.90;;;;;;5063838;28;20119;-57
2022/04/05 04:28:08;;;;;;;38.75;22.95;;;8.30;99.90;;;;;;5052794;28;20205;-56
2022/04/05 04:30:35;;;;;;;39.08;23.45;;;8.30;99.90;;;;;;5058720;28;20129;-58
2022/04/05 04:33:02;;;;;;;36.58;20.75;;;8.30;99.90;;;;;;5056806;28;20021;-56
2022/04/05 04:35:28;;;;;;;40.13;23.65;;;8.30;99.90;;;;;;5058663;28;20033;-57
2022/04/05 04:37:54;;;;;;;39.38;23.73;;;8.30;99.90;;;;;;5057766;28;20021;-58
2022/04/05 04:40:20;;;;;;;40.38;24.40;;;8.40;99.90;;;;;;5061194;28;20036;-59
2022/04/05 04:42:46;;;;;;;50.80;28.55;;;8.50;99.90;;;;;;5052944;28;20037;-60
2022/04/05 04:45:13;;;;;;;43.03;26.05;;;8.40;99.90;;;;;;5054313;28;20107;-58
2022/04/05 04:47:38;;;;;;;50.38;29.65;;;8.40;99.90;;;;;;5072624;28;20063;-60
2022/04/05 04:50:06;;;;;;;50.15;29.52;;;8.50;99.90;;;;;;5064019;28;20118;-57
2022/04/05 04:52:31;;;;;;;44.78;25.85;;;8.50;99.90;;;;;;5067468;28;20541;-58
2022/04/05 04:54:57;;;;;;;43.92;25.35;;;8.50;99.90;;;;;;5054554;28;20036;-54
2022/04/05 04:57:25;;;;;;;47.10;28.00;;;8.50;99.90;;;;;;5055103;28;20037;-59
2022/04/05 04:59:50;;;;;;;44.95;26.70;;;8.50;99.90;;;;;;5064583;28;20034;-59
2022/04/05 05:02:16;;;;;;;47.10;25.27;;;8.50;99.90;;;;;;5060265;28;20032;-60
2022/04/05 05:04:42;;;;;;;45.08;24.35;;;8.50;99.90;;;;;;5067452;28;20040;-60
2022/04/05 05:07:07;;;;;;;34.47;21.70;;;8.50;99.90;;;;;;5070700;28;20033;-57
2022/04/05 05:09:33;;;;;;;38.83;21.08;;;8.60;99.90;;;;;;5065879;28;20036;-59
2022/04/05 05:12:00;;;;;;;40.90;23.25;;;8.60;99.90;;;;;;5061476;28;20031;-58
2022/04/05 05:14:27;;;;;;;44.40;23.95;;;8.60;99.90;;;;;;5073309;28;20019;-52
2022/04/05 05:16:53;;;;;;;40.80;23.17;;;8.60;99.90;;;;;;5073642;28;20024;-59
2022/04/05 05:19:19;;;;;;;35.63;21.33;;;8.70;99.90;;;;;;5056654;28;20029;-60
2022/04/05 05:21:45;;;;;;;39.75;24.25;;;8.70;99.90;;;;;;5066899;28;20037;-59
2022/04/05 05:24:10;;;;;;;44.47;23.92;;;8.70;99.90;;;;;;5054611;28;20372;-58
2022/04/05 05:26:36;;;;;;;42.90;22.83;;;8.70;99.90;;;;;;5053419;28;20064;-59
2022/04/05 05:29:01;;;;;;;41.42;22.85;;;8.70;99.90;;;;;;5038819;28;20076;-60
2022/04/05 05:31:27;;;;;;;42.58;23.02;;;8.70;99.90;;;;;;5058775;28;20032;-59
2022/04/05 05:33:52;;;;;;;46.45;24.30;;;8.70;99.90;;;;;;5064971;28;20165;-58
2022/04/05 05:36:18;;;;;;;45.13;23.65;;;8.70;99.90;;;;;;5063915;28;20544;-57
2022/04/05 05:38:43;;;;;;;46.58;25.13;;;8.80;99.90;;;;;;5057608;28;20071;-59
2022/04/05 05:41:09;;;;;;;43.70;25.25;;;8.80;99.90;;;;;;5069551;28;20391;-59
2022/04/05 05:43:35;;;;;;;43.30;25.13;;;8.80;99.90;;;;;;5063375;28;20411;-59
2022/04/05 05:46:03;;;;;;;44.83;23.92;;;8.80;99.90;;;;;;5064978;28;20391;-57
2022/04/05 05:48:29;;;;;;;39.05;21.98;;;8.80;99.90;;;;;;5070620;28;20044;-58
2022/04/05 05:50:55;;;;;;;42.60;23.33;;;8.80;99.90;;;;;;5046790;28;20021;-56
2022/04/05 05:53:21;;;;;;;41.60;22.75;;;8.80;99.90;;;;;;5057801;28;20456;-53
2022/04/05 05:55:48;;;;;;;43.38;22.92;;;8.80;99.90;;;;;;5067147;28;20487;-53
2022/04/05 05:58:14;;;;;;;43.75;23.08;;;8.80;99.90;;;;;;5062904;28;20021;-53
2022/04/05 06:00:39;;;;;;;43.92;23.42;;;8.80;99.90;;;;;;5059962;28;20029;-58
2022/04/05 06:03:05;;;;;;;39.80;20.77;;;8.80;99.90;;;;;;5065014;28;20038;-55
2022/04/05 06:05:31;;;;;;;36.50;21.98;;;8.90;99.90;;;;;;5063667;28;20044;-57
2022/04/05 06:07:57;;;;;;;42.50;22.02;;;8.90;99.90;;;;;;5059059;28;20067;-55
2022/04/05 06:10:24;;;;;;;30.20;18.02;;;8.90;99.90;;;;;;5059482;28;20376;-59
2022/04/05 06:12:51;;;;;;;35.63;21.10;;;8.90;99.90;;;;;;5062735;28;20048;-57
2022/04/05 06:15:18;;;;;;;31.23;19.52;;;8.90;99.90;;;;;;5072777;28;20036;-54
2022/04/05 06:17:46;;;;;;;37.00;20.77;;;8.90;99.90;;;;;;5068634;28;20028;-58
2022/04/05 06:20:14;;;;;;;40.60;19.80;;;8.90;99.90;;;;;;5060888;28;20033;-59
2022/04/05 06:22:50;;;;;;;37.53;20.08;;;8.90;99.90;;;;;;5056334;28;20021;-59
2022/04/05 06:25:30;;;;;;;34.20;20.08;;;8.90;99.90;;;;;;5057996;28;20440;-55
2022/04/05 06:27:57;;;;;;;32.97;18.65;;;9.00;99.90;;;;;;5057955;28;20108;-59
2022/04/05 06:30:24;;;;;;;33.55;18.25;;;9.00;99.90;;;;;;5036573;28;20052;-54
2022/04/05 06:32:50;;;;;;;28.40;17.08;;;9.00;99.90;;;;;;5060732;28;20101;-55
2022/04/05 06:35:16;;;;;;;33.65;20.95;;;9.00;99.90;;;;;;5063915;28;20021;-60
2022/04/05 06:37:44;;;;;;;37.90;22.23;;;9.00;99.90;;;;;;5055485;28;20061;-54
2022/04/05 06:40:12;;;;;;;38.58;24.02;;;9.00;99.90;;;;;;5064331;28;20021;-58
2022/04/05 06:42:43;;;;;;;37.80;23.23;;;9.00;99.90;;;;;;5057018;28;20377;-59
2022/04/05 06:45:14;;;;;;;38.42;22.90;;;9.10;99.90;;;;;;5052147;28;20069;-56
2022/04/05 06:47:39;;;;;;;39.65;23.92;;;9.10;99.90;;;;;;5062424;28;20538;-59
2022/04/05 06:50:07;;;;;;;40.25;23.35;;;9.10;99.90;;;;;;5071907;28;20032;-59
2022/04/05 06:52:38;;;;;;;39.58;23.40;;;9.10;99.90;;;;;;5063401;28;20660;-57
2022/04/05 06:55:05;;;;;;;39.92;23.15;;;9.10;99.90;;;;;;5071096;28;20086;-60
2022/04/05 06:57:30;;;;;;;43.33;22.88;;;9.10;99.90;;;;;;5064323;28;20457;-60
2022/04/05 06:59:56;;;;;;;45.63;26.02;;;9.10;99.90;;;;;;5066834;28;20028;-61
2022/04/05 07:02:22;;;;;;;38.58;23.90;;;9.10;99.90;;;;;;5063463;28;20036;-61
2022/04/05 07:04:48;;;;;;;33.85;21.77;;;9.10;99.90;;;;;;5063727;28;20028;-58
2022/04/05 07:07:14;;;;;;;34.85;22.15;;;9.20;99.90;;;;;;5062158;28;20031;-57
2022/04/05 07:09:40;;;;;;;34.55;20.55;;;9.20;99.90;;;;;;5056583;28;20032;-58
2022/04/05 07:12:07;;;;;;;35.28;20.65;;;9.10;99.90;;;;;;5071645;28;20028;-59
2022/04/05 07:14:33;;;;;;;28.10;16.05;;;9.20;99.90;;;;;;5070248;28;20021;-60
2022/04/05 07:16:59;;;;;;;24.67;14.65;;;9.20;99.90;;;;;;5064464;28;20021;-61
2022/04/05 07:19:25;;;;;;;23.77;15.30;;;9.20;99.90;;;;;;5055176;28;20541;-61
2022/04/05 07:21:50;;;;;;;26.58;18.20;;;9.20;99.90;;;;;;5057116;28;20104;-59
2022/04/05 07:24:16;;;;;;;33.60;20.40;;;9.20;99.90;;;;;;5058275;28;20036;-60
2022/04/05 07:26:42;;;;;;;27.35;18.35;;;9.30;99.90;;;;;;5065050;28;20032;-59
2022/04/05 07:29:08;;;;;;;35.67;23.83;;;9.20;99.90;;;;;;5037942;28;20103;-58
2022/04/05 07:31:33;;;;;;;30.65;19.45;;;9.20;99.90;;;;;;5063648;28;20108;-52
2022/04/05 07:33:59;;;;;;;33.30;24.00;;;9.20;99.90;;;;;;5065721;28;20051;-52
2022/04/05 07:36:25;;;;;;;26.02;17.10;;;9.20;99.90;;;;;;5063601;28;20032;-58
2022/04/05 07:38:52;;;;;;;24.58;17.25;;;9.20;99.90;;;;;;5052869;28;20059;-52
2022/04/05 07:41:21;;;;;;;22.92;16.38;;;9.20;99.90;;;;;;5057238;28;20021;-60
2022/04/05 07:43:47;;;;;;;22.70;15.07;;;9.20;99.90;;;;;;5060658;28;20562;-54
2022/04/05 07:46:13;;;;;;;24.38;18.70;;;9.20;99.90;;;;;;5058451;28;20629;-53
2022/04/05 07:48:39;;;;;;;24.67;15.73;;;9.20;99.90;;;;;;5064567;28;20032;-60
2022/04/05 07:51:05;;;;;;;22.45;15.52;;;9.20;99.90;;;;;;5061935;28;20024;-52
2022/04/05 07:53:31;;;;;;;21.55;15.75;;;9.30;99.90;;;;;;5069236;28;20020;-58
2022/04/05 07:55:57;;;;;;;19.80;14.82;;;9.20;99.90;;;;;;5059584;28;20021;-52
2022/04/05 07:58:24;;;;;;;23.95;16.88;;;9.30;99.90;;;;;;5057516;28;20404;-55
2022/04/05 08:00:51;;;;;;;22.48;16.50;;;9.30;99.90;;;;;;5053807;28;20182;-58
2022/04/05 08:03:17;;;;;;;25.15;17.60;;;9.30;99.90;;;;;;5068976;28;20563;-59
2022/04/05 08:05:43;;;;;;;18.90;13.20;;;9.30;99.90;;;;;;5066124;28;20028;-59
2022/04/05 08:08:09;;;;;;;22.98;15.90;;;9.30;99.90;;;;;;5062194;28;20067;-59
2022/04/05 08:10:35;;;;;;;18.42;13.90;;;9.30;99.90;;;;;;5051637;28;20078;-59
2022/04/05 08:13:01;;;;;;;19.33;13.88;;;9.30;99.90;;;;;;5058395;28;20032;-58
2022/04/05 08:15:27;;;;;;;19.23;13.30;;;9.40;99.90;;;;;;5059286;28;20438;-57
2022/04/05 08:17:53;;;;;;;17.13;12.57;;;9.40;99.90;;;;;;5057921;28;20037;-57
2022/04/05 08:20:20;;;;;;;19.55;14.70;;;9.40;99.90;;;;;;5058504;28;20021;-59
2022/04/05 08:22:47;;;;;;;20.00;14.85;;;9.50;99.90;;;;;;5065258;28;20028;-57
2022/04/05 08:25:14;;;;;;;15.77;11.50;;;9.40;99.90;;;;;;5058005;28;20024;-57
2022/04/05 08:27:41;;;;;;;14.07;10.45;;;9.50;99.90;;;;;;5058526;28;20028;-58
2022/04/05 08:30:09;;;;;;;35.83;23.83;;;9.50;99.90;;;;;;5043317;28;20384;-59
2022/04/05 08:32:36;;;;;;;39.58;25.00;;;9.50;99.90;;;;;;5051419;28;20021;-59
2022/04/05 08:35:04;;;;;;;30.02;20.42;;;9.50;99.90;;;;;;5055268;28;20396;-57
2022/04/05 08:37:30;;;;;;;29.83;19.40;;;9.60;99.90;;;;;;5050176;28;20025;-55
2022/04/05 08:39:56;;;;;;;19.25;12.80;;;9.60;99.90;;;;;;5058954;28;20025;-55
2022/04/05 08:42:23;;;;;;;54.70;31.92;;;9.50;99.90;;;;;;5057566;28;20404;-60
2022/04/05 08:44:49;;;;;;;73.43;45.00;;;9.50;99.90;;;;;;5055147;28;20086;-58
2022/04/05 08:47:21;;;;;;;17.60;13.30;;;9.50;99.90;;;;;;5061533;28;20043;-58
2022/04/05 08:49:48;;;;;;;23.15;15.95;;;9.60;99.90;;;;;;5063962;28;20055;-56
2022/04/05 08:52:14;;;;;;;19.67;13.80;;;9.50;99.90;;;;;;5065373;28;20107;-58
2022/04/05 08:54:39;;;;;;;17.73;13.25;;;9.60;99.90;;;;;;5058155;28;20100;-60
2022/04/05 08:57:05;;;;;;;20.40;14.70;;;9.60;99.90;;;;;;5050039;28;20033;-60
2022/04/05 08:59:31;;;;;;;21.75;14.48;;;9.70;99.90;;;;;;5056711;28;20032;-59
2022/04/05 09:01:57;;;;;;;21.42;14.07;;;9.70;99.90;;;;;;5045263;28;20051;-57
2022/04/05 09:04:22;;;;;;;21.33;14.70;;;9.70;99.90;;;;;;5048937;28;20078;-58
2022/04/05 09:06:48;;;;;;;20.42;15.00;;;9.80;99.90;;;;;;5037201;28;20033;-52
2022/04/05 09:09:19;;;;;;;26.08;16.52;;;9.80;99.90;;;;;;5036068;28;20043;-61
2022/04/05 09:11:47;;;;;;;21.73;16.02;;;9.80;99.90;;;;;;5049278;28;20114;-54
2022/04/05 09:14:14;;;;;;;20.70;15.73;;;9.90;99.90;;;;;;5049567;28;20021;-56
2022/04/05 09:16:39;;;;;;;23.55;15.48;;;10.00;99.90;;;;;;5039606;28;20535;-60
2022/04/05 09:19:13;;;;;;;19.80;14.15;;;10.00;99.90;;;;;;5044303;28;20100;-60
2022/04/05 09:21:53;;;;;;;23.35;14.85;;;10.00;99.90;;;;;;5041613;28;20022;-57
2022/04/05 09:24:20;;;;;;;21.38;14.10;;;10.00;99.90;;;;;;5041578;28;20037;-60
2022/04/05 09:26:46;;;;;;;19.48;12.95;;;10.20;99.90;;;;;;5042764;28;20116;-59
2022/04/05 09:29:14;;;;;;;18.80;14.68;;;10.20;99.90;;;;;;5030623;28;20025;-62
2022/04/05 09:31:47;;;;;;;22.60;14.50;;;10.20;99.90;;;;;;5027272;28;20504;-60
2022/04/05 09:34:17;;;;;;;19.77;15.43;;;10.20;99.90;;;;;;5042945;28;20539;-61
2022/04/05 09:36:45;;;;;;;17.80;13.90;;;10.30;99.90;;;;;;5047178;28;20036;-61
2022/04/05 09:39:17;;;;;;;20.35;15.60;;;10.40;99.90;;;;;;5044457;28;20029;-60
2022/04/05 09:41:58;;;;;;;22.13;14.32;;;10.50;99.90;;;;;;5033434;28;20040;-61
2022/04/05 09:44:29;;;;;;;19.55;15.02;;;10.60;99.90;;;;;;5040560;28;20558;-60
2022/04/05 09:47:14;;;;;;;20.88;13.52;;;10.60;99.90;;;;;;5045989;28;20120;-61
2022/04/05 09:49:41;;;;;;;16.65;13.75;;;10.50;99.90;;;;;;5041851;28;20104;-61
2022/04/05 09:52:24;;;;;;;18.55;15.13;;;10.40;99.90;;;;;;5037057;28;20087;-59
2022/04/05 09:54:50;;;;;;;17.47;13.70;;;10.50;99.90;;;;;;5051101;28;20031;-59
2022/04/05 09:57:30;;;;;;;19.05;14.38;;;10.50;99.90;;;;;;5052344;28;20025;-58
2022/04/05 10:00:07;;;;;;;19.52;15.23;;;10.60;99.90;;;;;;5044500;28;20511;-58
2022/04/05 10:02:33;;;;;;;19.90;15.88;;;10.50;99.90;;;;;;5049926;28;20035;-59
2022/04/05 10:05:05;;;;;;;20.50;15.18;;;10.50;99.90;;;;;;5044046;28;20028;-60
2022/04/05 10:07:32;;;;;;;22.45;16.40;;;10.40;99.90;;;;;;5050272;28;20488;-58
2022/04/05 10:10:03;;;;;;;21.05;16.05;;;10.50;99.90;;;;;;5044089;28;20495;-59
2022/04/05 10:12:29;;;;;;;20.45;15.77;;;10.50;99.90;;;;;;5047152;28;20120;-57
2022/04/05 10:14:55;;;;;;;20.65;16.30;;;10.50;99.90;;;;;;5040701;28;20124;-60
2022/04/05 10:17:28;;;;;;;25.08;16.00;;;10.50;99.90;;;;;;5042325;28;20393;-61
2022/04/05 10:19:56;;;;;;;23.05;16.85;;;10.50;99.90;;;;;;5034364;28;20040;-59
2022/04/05 10:22:23;;;;;;;20.85;17.33;;;10.40;99.90;;;;;;5046258;28;20021;-58
2022/04/05 10:24:53;;;;;;;26.02;17.48;;;10.40;99.90;;;;;;5046501;28;20037;-59
2022/04/05 10:27:20;;;;;;;22.83;17.30;;;10.40;99.90;;;;;;5050949;28;20017;-55
2022/04/05 10:29:50;;;;;;;24.90;18.13;;;10.40;99.90;;;;;;5025342;28;20047;-54
2022/04/05 10:32:31;;;;;;;20.63;16.40;;;10.40;99.90;;;;;;5038295;28;20022;-57
2022/04/05 10:35:03;;;;;;;19.77;15.10;;;10.40;99.90;;;;;;5041385;28;20018;-59
2022/04/05 10:37:35;;;;;;;20.15;16.45;;;10.50;99.90;;;;;;5032195;28;20038;-57
2022/04/05 10:40:00;;;;;;;22.90;15.98;;;10.50;99.90;;;;;;5032124;28;20057;-58
2022/04/05 10:42:48;;;;;;;23.00;17.23;;;10.50;99.90;;;;;;5048268;28;20522;-58
2022/04/05 10:45:30;;;;;;;19.73;16.17;;;10.50;99.90;;;;;;5051113;28;20100;-57
2022/04/05 10:48:15;;;;;;;20.10;15.73;;;10.60;99.90;;;;;;5038072;28;20048;-57
2022/04/05 10:50:42;;;;;;;25.08;18.10;;;10.70;99.90;;;;;;5041781;28;20028;-57
2022/04/05 10:53:14;;;;;;;23.60;17.83;;;10.80;99.90;;;;;;5041528;28;20086;-61
2022/04/05 10:56:07;;;;;;;20.52;16.45;;;11.00;99.90;;;;;;5039104;28;20013;-58
2022/04/05 10:58:47;;;;;;;14.88;12.00;;;11.10;99.90;;;;;;5043348;28;20024;-51
2022/04/05 11:01:20;;;;;;;21.90;15.80;;;11.10;99.90;;;;;;5044096;28;20033;-60
2022/04/05 11:04:18;;;;;;;14.77;11.77;;;11.20;99.90;;;;;;5037885;28;20032;-59
2022/04/05 11:06:59;;;;;;;40.97;24.17;;;11.20;99.90;;;;;;5041105;28;20504;-58
2022/04/05 11:09:33;;;;;;;16.02;11.32;;;11.20;99.90;;;;;;5045693;28;20017;-58
2022/04/05 11:12:03;;;;;;;;;;;11.40;99.90;;;;;;5041348;28;20018;-58
2022/04/05 11:14:38;;;;;;;14.30;10.40;;;11.40;99.90;;;;;;5042597;28;19908;-60
2022/04/05 11:17:08;;;;;;;15.43;10.80;;;11.50;99.90;;;;;;5035882;28;20132;-59
2022/04/05 11:19:38;;;;;;;12.65;10.18;;;11.50;99.90;;;;;;5043785;28;20407;-59
2022/04/05 11:22:05;;;;;;;10.25;8.77;;;11.80;99.90;;;;;;5048365;28;20094;-56
2022/04/05 11:25:06;;;;;;;13.93;11.07;;;11.70;99.90;;;;;;5038578;28;20036;-51
2022/04/05 11:27:38;;;;;;;11.20;9.02;;;12.00;99.90;;;;;;5033597;28;20029;-59
2022/04/05 11:30:27;;;;;;;14.10;10.80;;;12.00;99.90;;;;;;5019850;28;20037;-61
2022/04/05 11:33:18;;;;;;;11.82;9.90;;;12.00;99.90;;;;;;5032000;28;20439;-59
2022/04/05 11:35:47;;;;;;;13.60;10.15;;;12.10;99.90;;;;;;5034319;28;20025;-58
2022/04/05 11:38:27;;;;;;;9.50;8.50;;;12.30;99.90;;;;;;5039423;28;20034;-59
2022/04/05 11:41:19;;;;;;;11.60;10.40;;;12.30;99.90;;;;;;5047864;28;20036;-58
2022/04/05 11:43:47;;;;;;;12.32;9.52;;;12.70;99.90;;;;;;5030658;28;20045;-52
2022/04/05 11:46:29;;;;;;;13.73;8.98;;;13.00;99.90;;;;;;5042505;28;20104;-57
2022/04/05 11:49:00;;;;;;;11.40;8.70;;;12.70;99.90;;;;;;5035289;28;20035;-59
2022/04/05 11:51:29;;;;;;;17.58;10.10;;;12.70;99.90;;;;;;5035366;28;20037;-60
2022/04/05 11:54:09;;;;;;;12.65;10.32;;;12.70;99.90;;;;;;5034550;28;20052;-61
2022/04/05 11:56:35;;;;;;;11.32;9.10;;;12.90;99.90;;;;;;5031089;28;20563;-60
2022/04/05 11:59:03;;;;;;;12.00;7.82;;;12.90;99.90;;;;;;5034705;28;20033;-58
2022/04/05 12:01:36;;;;;;;16.08;10.30;;;13.00;99.90;;;;;;5040118;28;20112;-60
2022/04/05 12:04:06;;;;;;;10.52;8.10;;;13.10;99.90;;;;;;5039502;28;20108;-60
2022/04/05 12:06:34;;;;;;;13.50;9.88;;;13.20;99.90;;;;;;5039521;28;20430;-54
2022/04/05 12:09:02;;;;;;;12.13;8.85;;;12.90;99.90;;;;;;5037870;28;20105;-61
2022/04/05 12:11:30;;;;;;;9.48;7.90;;;12.80;99.90;;;;;;5037597;28;20506;-55
2022/04/05 12:13:57;;;;;;;9.80;8.57;;;12.60;99.90;;;;;;5047045;28;20101;-58
2022/04/05 12:16:28;;;;;;;10.77;8.77;;;12.40;99.90;;;;;;5032580;28;20029;-54
2022/04/05 12:18:55;;;;;;;11.45;8.68;;;12.40;99.90;;;;;;5031095;28;20030;-61
2022/04/05 12:21:23;;;;;;;10.05;8.20;;;12.30;99.90;;;;;;5036720;28;20223;-59
2022/04/05 12:23:49;;;;;;;10.13;7.70;;;12.20;99.90;;;;;;5033821;28;20036;-61
2022/04/05 12:26:23;;;;;;;9.88;8.38;;;12.10;99.90;;;;;;5031593;28;20491;-58
2022/04/05 12:29:00;;;;;;;7.78;6.97;;;12.00;99.90;;;;;;5034363;28;20033;-59
2022/04/05 12:31:30;;;;;;;7.78;6.40;;;12.10;99.90;;;;;;5015163;28;20564;-56
2022/04/05 12:34:01;;;;;;;7.03;6.32;;;11.90;99.90;;;;;;5035520;28;20412;-52
2022/04/05 12:36:33;;;;;;;8.73;7.05;;;11.90;99.90;;;;;;5043763;28;20021;-59
2022/04/05 12:39:00;;;;;;;9.93;7.13;;;11.80;99.90;;;;;;5037431;28;20090;-59
2022/04/05 12:41:25;;;;;;;7.43;6.40;;;11.80;99.90;;;;;;5047654;28;20163;-61
2022/04/05 12:44:08;;;;;;;9.02;6.60;;;11.80;99.90;;;;;;5032452;28;20108;-56